sensor_id;sensor_type;location;lat;lon;timestamp;pressure;altitude;pressure_sealevel;temperature;humidity
53647;BME280;39550;52.230;5.194;2022-11-15T00:01:11;100726.28;;;7.59;77.65
53647;BME280;39550;52.230;5.194;2022-11-15T00:03:39;100708.09;;;7.46;77.79
53647;BME280;39550;52.230;5.194;2022-11-15T00:06:04;100726.16;;;7.53;77.22
53647;BME280;39550;52.230;5.194;2022-11-15T00:08:31;100734.81;;;7.58;77.36
53647;BME280;39550;52.230;5.194;2022-11-15T00:10:58;100727.13;;;7.58;77.77
53647;BME280;39550;52.230;5.194;2022-11-15T00:13:24;100710.66;;;7.46;77.72
53647;BME280;39550;52.230;5.194;2022-11-15T00:15:49;100707.25;;;7.47;77.83
53647;BME280;39550;52.230;5.194;2022-11-15T00:18:15;100702.13;;;7.47;77.16
53647;BME280;39550;52.230;5.194;2022-11-15T00:20:41;100711.72;;;7.58;77.21
53647;BME280;39550;52.230;5.194;2022-11-15T00:23:06;100698.69;;;7.45;77.24
53647;BME280;39550;52.230;5.194;2022-11-15T00:25:32;100709.16;;;7.58;77.00
53647;BME280;39550;52.230;5.194;2022-11-15T00:27:58;100714.28;;;7.58;76.83
53647;BME280;39550;52.230;5.194;2022-11-15T00:30:24;100690.19;;;7.48;77.64
53647;BME280;39550;52.230;5.194;2022-11-15T00:32:50;100700.50;;;7.53;77.90
53647;BME280;39550;52.230;5.194;2022-11-15T00:35:15;100703.00;;;7.48;77.26
53647;BME280;39550;52.230;5.194;2022-11-15T00:37:40;100705.59;;;7.49;77.88
53647;BME280;39550;52.230;5.194;2022-11-15T00:40:06;100676.34;;;7.38;77.42
53647;BME280;39550;52.230;5.194;2022-11-15T00:42:32;100695.28;;;7.46;77.81
53647;BME280;39550;52.230;5.194;2022-11-15T00:44:57;100703.97;;;7.55;77.21
53647;BME280;39550;52.230;5.194;2022-11-15T00:47:22;100694.50;;;7.50;77.65
53647;BME280;39550;52.230;5.194;2022-11-15T00:49:47;100701.38;;;7.53;78.02
53647;BME280;39550;52.230;5.194;2022-11-15T00:52:13;100686.91;;;7.57;77.43
53647;BME280;39550;52.230;5.194;2022-11-15T00:54:38;100663.50;;;7.37;77.63
53647;BME280;39550;52.230;5.194;2022-11-15T00:57:03;100688.59;;;7.55;77.39
53647;BME280;39550;52.230;5.194;2022-11-15T00:59:29;100693.66;;;7.52;77.60
53647;BME280;39550;52.230;5.194;2022-11-15T01:01:54;100669.56;;;7.43;77.92
53647;BME280;39550;52.230;5.194;2022-11-15T01:04:19;100656.75;;;7.43;77.78
53647;BME280;39550;52.230;5.194;2022-11-15T01:06:44;100667.13;;;7.49;77.75
53647;BME280;39550;52.230;5.194;2022-11-15T01:09:10;100631.72;;;7.28;77.39
53647;BME280;39550;52.230;5.194;2022-11-15T01:11:35;100650.69;;;7.38;77.37
53647;BME280;39550;52.230;5.194;2022-11-15T01:14:00;100656.72;;;7.40;78.07
53647;BME280;39550;52.230;5.194;2022-11-15T01:16:26;100648.19;;;7.41;78.04
53647;BME280;39550;52.230;5.194;2022-11-15T01:18:51;100662.78;;;7.45;77.64
53647;BME280;39550;52.230;5.194;2022-11-15T01:21:18;100680.91;;;7.55;77.66
53647;BME280;39550;52.230;5.194;2022-11-15T01:23:43;100632.53;;;7.26;77.66
53647;BME280;39550;52.230;5.194;2022-11-15T01:26:12;100674.91;;;7.56;77.99
53647;BME280;39550;52.230;5.194;2022-11-15T01:28:39;100666.41;;;7.57;77.63
53647;BME280;39550;52.230;5.194;2022-11-15T01:31:25;100660.34;;;7.53;78.39
53647;BME280;39550;52.230;5.194;2022-11-15T01:33:50;100626.66;;;7.31;77.80
53647;BME280;39550;52.230;5.194;2022-11-15T01:36:18;100654.34;;;7.53;77.90
53647;BME280;39550;52.230;5.194;2022-11-15T01:38:44;100643.09;;;7.44;78.15
53647;BME280;39550;52.230;5.194;2022-11-15T01:41:17;100662.97;;;7.55;77.51
53647;BME280;39550;52.230;5.194;2022-11-15T01:43:43;100641.47;;;7.48;78.14
53647;BME280;39550;52.230;5.194;2022-11-15T01:48:35;100651.00;;;7.57;78.45
53647;BME280;39550;52.230;5.194;2022-11-15T01:51:06;100619.94;;;7.38;77.77
53647;BME280;39550;52.230;5.194;2022-11-15T01:53:33;100628.63;;;7.46;78.04
53647;BME280;39550;52.230;5.194;2022-11-15T01:56:04;100636.41;;;7.53;77.76
53647;BME280;39550;52.230;5.194;2022-11-15T01:58:30;100640.75;;;7.57;78.11
53647;BME280;39550;52.230;5.194;2022-11-15T02:00:56;100626.09;;;7.48;77.94
53647;BME280;39550;52.230;5.194;2022-11-15T02:03:22;100609.59;;;7.35;78.07
53647;BME280;39550;52.230;5.194;2022-11-15T02:05:50;100631.22;;;7.48;78.41
53647;BME280;39550;52.230;5.194;2022-11-15T02:08:16;100609.69;;;7.38;77.97
53647;BME280;39550;52.230;5.194;2022-11-15T02:10:48;100597.63;;;7.32;78.47
53647;BME280;39550;52.230;5.194;2022-11-15T02:13:17;100609.72;;;7.41;78.22
53647;BME280;39550;52.230;5.194;2022-11-15T02:16:03;100591.72;;;7.37;78.82
53647;BME280;39550;52.230;5.194;2022-11-15T02:18:37;100608.91;;;7.44;78.37
53647;BME280;39550;52.230;5.194;2022-11-15T02:21:26;100612.41;;;7.49;78.22
53647;BME280;39550;52.230;5.194;2022-11-15T02:30:02;100600.56;;;7.56;78.17
53647;BME280;39550;52.230;5.194;2022-11-15T02:32:35;100604.88;;;7.58;77.91
53647;BME280;39550;52.230;5.194;2022-11-15T02:37:54;100572.16;;;7.43;77.98
53647;BME280;39550;52.230;5.194;2022-11-15T02:40:35;100563.47;;;7.35;78.26
53647;BME280;39550;52.230;5.194;2022-11-15T02:43:08;100549.81;;;7.36;78.60
53647;BME280;39550;52.230;5.194;2022-11-15T02:46:18;100577.47;;;7.56;77.99
53647;BME280;39550;52.230;5.194;2022-11-15T02:48:47;100562.00;;;7.49;78.82
53647;BME280;39550;52.230;5.194;2022-11-15T02:51:13;100535.31;;;7.37;78.37
53647;BME280;39550;52.230;5.194;2022-11-15T02:53:38;100555.16;;;7.48;78.73
53647;BME280;39550;52.230;5.194;2022-11-15T02:56:04;100558.66;;;7.54;78.79
53647;BME280;39550;52.230;5.194;2022-11-15T03:04:28;100556.16;;;7.58;78.87
53647;BME280;39550;52.230;5.194;2022-11-15T03:07:15;100541.47;;;7.48;78.80
53647;BME280;39550;52.230;5.194;2022-11-15T03:09:59;100537.16;;;7.45;79.04
53647;BME280;39550;52.230;5.194;2022-11-15T03:12:34;100558.69;;;7.57;78.67
53647;BME280;39550;52.230;5.194;2022-11-15T03:15:05;100500.09;;;7.25;78.95
53647;BME280;39550;52.230;5.194;2022-11-15T03:18:02;100563.00;;;7.59;78.87
53647;BME280;39550;52.230;5.194;2022-11-15T03:20:30;100524.16;;;7.33;78.36
53647;BME280;39550;52.230;5.194;2022-11-15T03:23:00;100531.00;;;7.34;78.76
53647;BME280;39550;52.230;5.194;2022-11-15T03:25:29;100566.38;;;7.55;78.56
53647;BME280;39550;52.230;5.194;2022-11-15T03:27:58;100554.41;;;7.56;78.72
53647;BME280;39550;52.230;5.194;2022-11-15T03:30:27;100537.91;;;7.38;78.86
53647;BME280;39550;52.230;5.194;2022-11-15T03:32:56;100555.34;;;7.61;78.45
53647;BME280;39550;52.230;5.194;2022-11-15T03:35:25;100519.09;;;7.39;78.54
53647;BME280;39550;52.230;5.194;2022-11-15T03:38:22;100555.34;;;7.61;79.08
53647;BME280;39550;52.230;5.194;2022-11-15T03:40:59;100530.28;;;7.43;78.34
53647;BME280;39550;52.230;5.194;2022-11-15T03:43:43;100528.63;;;7.46;78.73
53647;BME280;39550;52.230;5.194;2022-11-15T03:46:44;100562.19;;;7.62;78.53
53647;BME280;39550;52.230;5.194;2022-11-15T03:49:19;100550.13;;;7.55;79.20
53647;BME280;39550;52.230;5.194;2022-11-15T03:51:47;100566.44;;;7.60;78.67
53647;BME280;39550;52.230;5.194;2022-11-15T03:54:12;100523.41;;;7.40;78.93
53647;BME280;39550;52.230;5.194;2022-11-15T03:56:38;100516.47;;;7.35;78.95
53647;BME280;39550;52.230;5.194;2022-11-15T03:59:03;100531.22;;;7.48;78.77
53647;BME280;39550;52.230;5.194;2022-11-15T04:01:29;100532.91;;;7.47;79.30
53647;BME280;39550;52.230;5.194;2022-11-15T04:03:54;100550.22;;;7.61;78.92
53647;BME280;39550;52.230;5.194;2022-11-15T04:06:19;100531.22;;;7.48;78.57
53647;BME280;39550;52.230;5.194;2022-11-15T04:08:45;100533.00;;;7.54;78.79
53647;BME280;39550;52.230;5.194;2022-11-15T04:11:10;100524.34;;;7.45;78.51
53647;BME280;39550;52.230;5.194;2022-11-15T04:13:35;100544.16;;;7.57;78.81
53647;BME280;39550;52.230;5.194;2022-11-15T04:16:00;100526.16;;;7.53;78.83
53647;BME280;39550;52.230;5.194;2022-11-15T04:18:26;100529.66;;;7.58;78.98
53647;BME280;39550;52.230;5.194;2022-11-15T04:20:51;100538.28;;;7.63;79.04
53647;BME280;39550;52.230;5.194;2022-11-15T04:23:35;100537.41;;;7.62;78.74
53647;BME280;39550;52.230;5.194;2022-11-15T04:26:21;100548.56;;;7.63;78.49
53647;BME280;39550;52.230;5.194;2022-11-15T04:28:47;100516.72;;;7.50;78.90
53647;BME280;39550;52.230;5.194;2022-11-15T04:31:31;100482.22;;;7.31;79.34
53647;BME280;39550;52.230;5.194;2022-11-15T04:33:57;100512.41;;;7.47;78.44
53647;BME280;39550;52.230;5.194;2022-11-15T04:36:22;100527.94;;;7.57;78.92
53647;BME280;39550;52.230;5.194;2022-11-15T04:39:07;100533.16;;;7.63;78.88
53647;BME280;39550;52.230;5.194;2022-11-15T04:41:32;100517.63;;;7.54;78.92
53647;BME280;39550;52.230;5.194;2022-11-15T04:43:57;100527.16;;;7.62;79.21
53647;BME280;39550;52.230;5.194;2022-11-15T04:46:23;100531.47;;;7.65;79.19
53647;BME280;39550;52.230;5.194;2022-11-15T04:48:50;100509.09;;;7.55;78.85
53647;BME280;39550;52.230;5.194;2022-11-15T04:51:15;100533.19;;;7.66;79.54
53647;BME280;39550;52.230;5.194;2022-11-15T04:53:41;100510.00;;;7.58;78.71
53647;BME280;39550;52.230;5.194;2022-11-15T04:56:06;100534.94;;;7.67;78.77
53647;BME280;39550;52.230;5.194;2022-11-15T04:58:32;100519.41;;;7.59;79.24
53647;BME280;39550;52.230;5.194;2022-11-15T05:00:57;100519.44;;;7.61;78.60
53647;BME280;39550;52.230;5.194;2022-11-15T05:03:22;100526.31;;;7.62;78.95
53647;BME280;39550;52.230;5.194;2022-11-15T05:06:06;100540.06;;;7.67;79.00
53647;BME280;39550;52.230;5.194;2022-11-15T05:08:32;100525.38;;;7.57;78.55
53647;BME280;39550;52.230;5.194;2022-11-15T05:10:57;100527.94;;;7.57;79.23
53647;BME280;39550;52.230;5.194;2022-11-15T05:13:23;100536.63;;;7.68;79.08
53647;BME280;39550;52.230;5.194;2022-11-15T05:15:48;100529.69;;;7.61;78.81
53647;BME280;39550;52.230;5.194;2022-11-15T05:18:13;100542.53;;;7.62;79.07
53647;BME280;39550;52.230;5.194;2022-11-15T05:20:38;100535.63;;;7.58;79.48
53647;BME280;39550;52.230;5.194;2022-11-15T05:23:04;100539.03;;;7.57;79.28
53647;BME280;39550;52.230;5.194;2022-11-15T05:25:29;100526.97;;;7.50;79.15
53647;BME280;39550;52.230;5.194;2022-11-15T05:27:57;100528.75;;;7.56;79.44
53647;BME280;39550;52.230;5.194;2022-11-15T05:30:22;100551.06;;;7.61;79.54
53647;BME280;39550;52.230;5.194;2022-11-15T05:32:48;100547.75;;;7.67;79.34
53647;BME280;39550;52.230;5.194;2022-11-15T05:35:26;100531.31;;;7.56;79.04
53647;BME280;39550;52.230;5.194;2022-11-15T05:37:54;100545.13;;;7.65;79.49
53647;BME280;39550;52.230;5.194;2022-11-15T05:40:19;100537.41;;;7.62;79.17
53647;BME280;39550;52.230;5.194;2022-11-15T05:42:45;100552.00;;;7.65;78.75
53647;BME280;39550;52.230;5.194;2022-11-15T05:45:11;100521.84;;;7.50;79.12
53647;BME280;39550;52.230;5.194;2022-11-15T05:47:37;100553.72;;;7.66;79.03
53647;BME280;39550;52.230;5.194;2022-11-15T05:50:04;100553.75;;;7.69;79.43
53647;BME280;39550;52.230;5.194;2022-11-15T05:52:31;100562.31;;;7.71;79.42
53647;BME280;39550;52.230;5.194;2022-11-15T05:54:59;100544.25;;;7.62;79.17
53647;BME280;39550;52.230;5.194;2022-11-15T05:57:25;100544.28;;;7.63;79.61
53647;BME280;39550;52.230;5.194;2022-11-15T05:59:50;100557.19;;;7.71;79.08
53647;BME280;39550;52.230;5.194;2022-11-15T06:02:16;100546.94;;;7.71;78.79
53647;BME280;39550;52.230;5.194;2022-11-15T06:04:42;100556.31;;;7.69;79.41
53647;BME280;39550;52.230;5.194;2022-11-15T06:07:07;100560.66;;;7.73;79.10
53647;BME280;39550;52.230;5.194;2022-11-15T06:09:32;100543.34;;;7.60;79.07
53647;BME280;39550;52.230;5.194;2022-11-15T06:12:01;100560.63;;;7.70;79.31
53647;BME280;39550;52.230;5.194;2022-11-15T06:14:26;100526.13;;;7.49;79.05
53647;BME280;39550;52.230;5.194;2022-11-15T06:16:51;100545.91;;;7.60;79.39
53647;BME280;39550;52.230;5.194;2022-11-15T06:19:17;100505.41;;;7.36;79.46
53647;BME280;39550;52.230;5.194;2022-11-15T06:21:42;100560.59;;;7.67;79.49
53647;BME280;39550;52.230;5.194;2022-11-15T06:24:08;100526.13;;;7.51;79.56
53647;BME280;39550;52.230;5.194;2022-11-15T06:26:33;100527.88;;;7.54;79.01
53647;BME280;39550;52.230;5.194;2022-11-15T06:28:58;100539.13;;;7.62;79.30
53647;BME280;39550;52.230;5.194;2022-11-15T06:31:24;100539.91;;;7.58;79.66
53647;BME280;39550;52.230;5.194;2022-11-15T06:33:49;100576.09;;;7.76;79.17
53647;BME280;39550;52.230;5.194;2022-11-15T06:36:14;100564.88;;;7.71;79.16
53647;BME280;39550;52.230;5.194;2022-11-15T06:38:45;100576.13;;;7.79;79.39
53647;BME280;39550;52.230;5.194;2022-11-15T06:41:11;100576.13;;;7.79;79.82
53647;BME280;39550;52.230;5.194;2022-11-15T06:43:38;100578.75;;;7.81;79.12
53647;BME280;39550;52.230;5.194;2022-11-15T06:46:04;100584.72;;;7.81;79.40
53647;BME280;39550;52.230;5.194;2022-11-15T06:48:31;100583.78;;;7.76;79.03
53647;BME280;39550;52.230;5.194;2022-11-15T06:50:58;100582.94;;;7.77;80.10
53647;BME280;39550;52.230;5.194;2022-11-15T06:53:24;100578.59;;;7.72;79.74
53647;BME280;39550;52.230;5.194;2022-11-15T06:55:50;100576.09;;;7.78;79.05
53647;BME280;39550;52.230;5.194;2022-11-15T06:58:15;100577.75;;;7.73;79.47
53647;BME280;39550;52.230;5.194;2022-11-15T07:00:41;100563.03;;;7.61;79.61
53647;BME280;39550;52.230;5.194;2022-11-15T07:03:07;100594.97;;;7.81;79.21
53647;BME280;39550;52.230;5.194;2022-11-15T07:05:32;100594.88;;;7.75;79.67
53647;BME280;39550;52.230;5.194;2022-11-15T07:07:58;100569.19;;;7.72;80.98
53647;BME280;39550;52.230;5.194;2022-11-15T07:10:24;100595.91;;;7.85;80.32
53647;BME280;39550;52.230;5.194;2022-11-15T07:12:54;100576.91;;;7.74;80.34
53647;BME280;39550;52.230;5.194;2022-11-15T07:15:22;100606.19;;;7.87;80.14
53647;BME280;39550;52.230;5.194;2022-11-15T07:17:47;100595.81;;;7.80;80.48
53647;BME280;39550;52.230;5.194;2022-11-15T07:20:13;100603.69;;;7.93;85.94
53647;BME280;39550;52.230;5.194;2022-11-15T07:22:39;100588.16;;;7.83;86.71
53647;BME280;39550;52.230;5.194;2022-11-15T07:25:05;100595.03;;;7.84;85.07
53647;BME280;39550;52.230;5.194;2022-11-15T07:27:31;100569.16;;;7.69;83.96
53647;BME280;39550;52.230;5.194;2022-11-15T07:29:56;100600.19;;;7.88;83.22
53647;BME280;39550;52.230;5.194;2022-11-15T07:32:21;100610.53;;;7.91;82.31
53647;BME280;39550;52.230;5.194;2022-11-15T07:34:47;100608.78;;;7.90;81.51
53647;BME280;39550;52.230;5.194;2022-11-15T07:37:12;100591.50;;;7.79;81.22
53647;BME280;39550;52.230;5.194;2022-11-15T07:39:37;100604.47;;;7.87;81.31
53647;BME280;39550;52.230;5.194;2022-11-15T07:42:03;100596.72;;;7.82;81.44
53647;BME280;39550;52.230;5.194;2022-11-15T07:44:47;100600.25;;;7.89;80.94
53647;BME280;39550;52.230;5.194;2022-11-15T07:47:12;100588.22;;;7.87;80.74
53647;BME280;39550;52.230;5.194;2022-11-15T07:49:37;100569.22;;;7.75;80.77
53647;BME280;39550;52.230;5.194;2022-11-15T07:52:03;100583.88;;;7.82;81.04
53647;BME280;39550;52.230;5.194;2022-11-15T07:54:28;100583.91;;;7.84;80.56
53647;BME280;39550;52.230;5.194;2022-11-15T07:56:53;100589.88;;;7.84;80.45
53647;BME280;39550;52.230;5.194;2022-11-15T07:59:18;100572.72;;;7.80;80.70
53647;BME280;39550;52.230;5.194;2022-11-15T08:01:44;100580.50;;;7.85;80.60
53647;BME280;39550;52.230;5.194;2022-11-15T08:04:10;100604.59;;;7.95;80.15
53647;BME280;39550;52.230;5.194;2022-11-15T08:06:36;100591.66;;;7.89;80.40
53647;BME280;39550;52.230;5.194;2022-11-15T08:09:01;100562.44;;;7.77;80.48
53647;BME280;39550;52.230;5.194;2022-11-15T08:11:27;100584.81;;;7.88;80.08
53647;BME280;39550;52.230;5.194;2022-11-15T08:13:52;100594.28;;;7.92;80.21
53647;BME280;39550;52.230;5.194;2022-11-15T08:16:17;100586.56;;;7.90;80.45
53647;BME280;39550;52.230;5.194;2022-11-15T08:18:42;100577.03;;;7.83;80.45
53647;BME280;39550;52.230;5.194;2022-11-15T08:21:09;100589.22;;;7.96;80.56
53647;BME280;39550;52.230;5.194;2022-11-15T08:23:34;100589.13;;;7.92;80.35
53647;BME280;39550;52.230;5.194;2022-11-15T08:26:02;100584.84;;;7.89;80.70
53647;BME280;39550;52.230;5.194;2022-11-15T08:28:29;100588.34;;;7.96;80.53
53647;BME280;39550;52.230;5.194;2022-11-15T08:30:54;100583.19;;;7.93;80.35
53647;BME280;39550;52.230;5.194;2022-11-15T08:33:19;100559.16;;;7.88;80.28
53647;BME280;39550;52.230;5.194;2022-11-15T08:35:45;100546.25;;;7.83;80.10
53647;BME280;39550;52.230;5.194;2022-11-15T08:38:10;100576.44;;;8.01;80.11
53647;BME280;39550;52.230;5.194;2022-11-15T08:40:36;100528.25;;;7.78;80.67
53647;BME280;39550;52.230;5.194;2022-11-15T08:43:01;100573.91;;;8.02;80.09
53647;BME280;39550;52.230;5.194;2022-11-15T08:45:28;100551.53;;;7.92;80.19
53647;BME280;39550;52.230;5.194;2022-11-15T08:47:54;100552.50;;;7.99;80.47
53647;BME280;39550;52.230;5.194;2022-11-15T08:50:19;100549.13;;;8.03;80.40
53647;BME280;39550;52.230;5.194;2022-11-15T08:52:45;100511.19;;;7.83;80.02
53647;BME280;39550;52.230;5.194;2022-11-15T08:55:10;100547.41;;;8.05;79.96
53647;BME280;39550;52.230;5.194;2022-11-15T08:57:35;100553.34;;;7.99;80.01
53647;BME280;39550;52.230;5.194;2022-11-15T09:00:01;100536.13;;;7.92;80.28
53647;BME280;39550;52.230;5.194;2022-11-15T09:02:26;100528.44;;;7.91;80.01
53647;BME280;39550;52.230;5.194;2022-11-15T09:04:51;100560.31;;;8.10;80.31
53647;BME280;39550;52.230;5.194;2022-11-15T09:07:16;100542.22;;;7.99;80.29
53647;BME280;39550;52.230;5.194;2022-11-15T09:09:42;100545.69;;;8.04;81.11
53647;BME280;39550;52.230;5.194;2022-11-15T09:12:07;100558.66;;;8.13;80.18
53647;BME280;39550;52.230;5.194;2022-11-15T09:14:33;100539.69;;;8.02;81.16
53647;BME280;39550;52.230;5.194;2022-11-15T09:16:59;100556.09;;;8.13;81.30
53647;BME280;39550;52.230;5.194;2022-11-15T09:19:24;100553.50;;;8.12;81.15
53647;BME280;39550;52.230;5.194;2022-11-15T09:21:49;100550.91;;;8.10;81.40
53647;BME280;39550;52.230;5.194;2022-11-15T09:24:15;100524.25;;;7.99;81.60
53647;BME280;39550;52.230;5.194;2022-11-15T09:26:41;100547.53;;;8.11;80.68
53647;BME280;39550;52.230;5.194;2022-11-15T09:29:06;100549.19;;;8.11;81.93
53647;BME280;39550;52.230;5.194;2022-11-15T09:31:32;100537.19;;;8.08;80.91
53647;BME280;39550;52.230;5.194;2022-11-15T09:33:57;100516.59;;;8.00;82.77
53647;BME280;39550;52.230;5.194;2022-11-15T09:36:23;100551.00;;;8.18;82.11
53647;BME280;39550;52.230;5.194;2022-11-15T09:38:48;100534.63;;;8.10;81.30
53647;BME280;39550;52.230;5.194;2022-11-15T09:43:53;100530.56;;;8.23;80.72
53647;BME280;39550;52.230;5.194;2022-11-15T09:46:50;100523.59;;;8.15;80.87
53647;BME280;39550;52.230;5.194;2022-11-15T09:49:21;100519.34;;;8.16;80.76
53647;BME280;39550;52.230;5.194;2022-11-15T09:51:49;100539.94;;;8.22;81.02
53647;BME280;39550;52.230;5.194;2022-11-15T09:54:34;100533.97;;;8.25;81.11
53647;BME280;39550;52.230;5.194;2022-11-15T09:59:55;100527.97;;;8.21;80.77
53647;BME280;39550;52.230;5.194;2022-11-15T10:05:18;100532.25;;;8.24;80.75
53647;BME280;39550;52.230;5.194;2022-11-15T10:07:54;100533.19;;;8.29;81.25
53647;BME280;39550;52.230;5.194;2022-11-15T10:10:35;100528.94;;;8.31;81.34
53647;BME280;39550;52.230;5.194;2022-11-15T10:13:03;100510.88;;;8.23;80.63
53647;BME280;39550;52.230;5.194;2022-11-15T10:15:28;100530.69;;;8.35;80.49
53647;BME280;39550;52.230;5.194;2022-11-15T10:18:17;100527.25;;;8.36;80.73
53647;BME280;39550;52.230;5.194;2022-11-15T10:20:56;100523.88;;;8.37;79.90
53647;BME280;39550;52.230;5.194;2022-11-15T10:23:23;100504.09;;;8.28;80.79
53647;BME280;39550;52.230;5.194;2022-11-15T10:25:59;100500.59;;;8.22;80.53
53647;BME280;39550;52.230;5.194;2022-11-15T10:28:29;100518.72;;;8.37;79.95
53647;BME280;39550;52.230;5.194;2022-11-15T10:30:57;100490.34;;;8.25;79.71
53647;BME280;39550;52.230;5.194;2022-11-15T10:33:39;100505.06;;;8.41;80.29
53647;BME280;39550;52.230;5.194;2022-11-15T10:46:33;100473.44;;;8.42;80.46
53647;BME280;39550;52.230;5.194;2022-11-15T10:49:20;100426.13;;;8.22;79.99
53647;BME280;39550;52.230;5.194;2022-11-15T10:51:54;100439.97;;;8.34;80.50
53647;BME280;39550;52.230;5.194;2022-11-15T10:57:07;100406.44;;;8.21;80.64
53647;BME280;39550;52.230;5.194;2022-11-15T10:59:37;100435.75;;;8.40;80.68
53647;BME280;39550;52.230;5.194;2022-11-15T11:02:23;100429.69;;;8.36;80.20
53647;BME280;39550;52.230;5.194;2022-11-15T11:04:52;100445.25;;;8.47;80.20
53647;BME280;39550;52.230;5.194;2022-11-15T11:07:23;100446.22;;;8.57;80.69
53647;BME280;39550;52.230;5.194;2022-11-15T11:10:18;100429.91;;;8.51;80.29
53647;BME280;39550;52.230;5.194;2022-11-15T11:12:42;100433.38;;;8.57;80.57
53647;BME280;39550;52.230;5.194;2022-11-15T11:15:13;100417.03;;;8.50;79.86
53647;BME280;39550;52.230;5.194;2022-11-15T11:20:30;100431.72;;;8.62;80.32
53647;BME280;39550;52.230;5.194;2022-11-15T11:26:01;100426.59;;;8.65;80.01
53647;BME280;39550;52.230;5.194;2022-11-15T11:28:39;100426.59;;;8.65;79.70
53647;BME280;39550;52.230;5.194;2022-11-15T11:31:29;100436.03;;;8.66;80.35
53647;BME280;39550;52.230;5.194;2022-11-15T11:34:15;100438.59;;;8.66;80.13
53647;BME280;39550;52.230;5.194;2022-11-15T11:37:20;100412.81;;;8.57;80.23
53647;BME280;39550;52.230;5.194;2022-11-15T11:42:58;100411.16;;;8.62;80.14
53647;BME280;39550;52.230;5.194;2022-11-15T11:48:13;100401.72;;;8.62;80.43
53647;BME280;39550;52.230;5.194;2022-11-15T11:50:40;100392.28;;;8.60;80.29
53647;BME280;39550;52.230;5.194;2022-11-15T11:53:25;100386.31;;;8.62;79.98
53647;BME280;39550;52.230;5.194;2022-11-15T11:55:53;100404.41;;;8.76;80.29
53647;BME280;39550;52.230;5.194;2022-11-15T11:58:36;100371.00;;;8.70;80.18
53647;BME280;39550;52.230;5.194;2022-11-15T12:01:16;100354.69;;;8.65;80.66
53647;BME280;39550;52.230;5.194;2022-11-15T12:06:50;100339.25;;;8.63;80.38
53647;BME280;39550;52.230;5.194;2022-11-15T12:09:37;100351.28;;;8.72;80.21
53647;BME280;39550;52.230;5.194;2022-11-15T12:12:19;100347.03;;;8.71;80.10
53647;BME280;39550;52.230;5.194;2022-11-15T12:14:51;100359.97;;;8.83;79.76
53647;BME280;39550;52.230;5.194;2022-11-15T12:17:22;100337.63;;;8.73;80.45
53647;BME280;39550;52.230;5.194;2022-11-15T12:19:48;100351.38;;;8.81;80.14
53647;BME280;39550;52.230;5.194;2022-11-15T12:22:35;100348.00;;;8.89;79.60
53647;BME280;39550;52.230;5.194;2022-11-15T12:25:20;100330.81;;;8.81;80.04
53647;BME280;39550;52.230;5.194;2022-11-15T12:27:52;100336.03;;;8.91;79.50
53647;BME280;39550;52.230;5.194;2022-11-15T12:30:21;100324.88;;;8.90;80.66
53647;BME280;39550;52.230;5.194;2022-11-15T12:32:57;100315.50;;;8.97;79.59
53647;BME280;39550;52.230;5.194;2022-11-15T12:35:43;100324.94;;;8.96;79.41
53647;BME280;39550;52.230;5.194;2022-11-15T12:41:16;100314.63;;;8.95;79.98
53647;BME280;39550;52.230;5.194;2022-11-15T12:43:44;100242.47;;;8.59;79.15
53647;BME280;39550;52.230;5.194;2022-11-15T12:46:18;100306.09;;;8.97;79.73
53647;BME280;39550;52.230;5.194;2022-11-15T12:48:54;100305.22;;;8.97;79.28
53647;BME280;39550;52.230;5.194;2022-11-15T12:51:23;100219.31;;;8.48;79.04
53647;BME280;39550;52.230;5.194;2022-11-15T12:59:48;100274.41;;;9.00;79.51
53647;BME280;39550;52.230;5.194;2022-11-15T13:02:33;100280.41;;;9.00;79.37
53647;BME280;39550;52.230;5.194;2022-11-15T13:17:42;100264.16;;;9.09;78.46
53647;BME280;39550;52.230;5.194;2022-11-15T13:30:40;100236.72;;;9.08;79.06
53647;BME280;39550;52.230;5.194;2022-11-15T13:33:33;100228.16;;;9.06;79.01
53647;BME280;39550;52.230;5.194;2022-11-15T13:36:01;100221.31;;;9.00;78.35
53647;BME280;39550;52.230;5.194;2022-11-15T13:38:29;100230.75;;;9.06;79.18
53647;BME280;39550;52.230;5.194;2022-11-15T13:40:56;100226.44;;;9.05;78.85
53647;BME280;39550;52.230;5.194;2022-11-15T13:48:33;100207.56;;;8.97;78.88
53647;BME280;39550;52.230;5.194;2022-11-15T13:51:00;100178.41;;;8.82;79.05
53647;BME280;39550;52.230;5.194;2022-11-15T13:53:27;100109.69;;;8.41;78.99
53647;BME280;39550;52.230;5.194;2022-11-15T13:55:55;100161.25;;;8.80;79.07
53647;BME280;39550;52.230;5.194;2022-11-15T13:58:22;100190.44;;;8.96;78.85
53647;BME280;39550;52.230;5.194;2022-11-15T14:00:47;100192.16;;;8.97;79.08
53647;BME280;39550;52.230;5.194;2022-11-15T14:03:19;100199.91;;;9.03;79.28
53647;BME280;39550;52.230;5.194;2022-11-15T14:06:06;100154.41;;;8.80;79.02
53647;BME280;39550;52.230;5.194;2022-11-15T14:08:35;100175.00;;;8.93;78.94
53647;BME280;39550;52.230;5.194;2022-11-15T14:13:35;100163.03;;;8.92;79.09
53647;BME280;39550;52.230;5.194;2022-11-15T14:16:18;100152.72;;;8.82;79.00
53647;BME280;39550;52.230;5.194;2022-11-15T14:18:47;100163.88;;;8.94;79.22
53647;BME280;39550;52.230;5.194;2022-11-15T14:21:13;100177.59;;;8.99;79.00
53647;BME280;39550;52.230;5.194;2022-11-15T14:23:39;100166.44;;;8.91;79.36
53647;BME280;39550;52.230;5.194;2022-11-15T14:26:05;100121.81;;;8.68;79.37
53647;BME280;39550;52.230;5.194;2022-11-15T14:28:32;100121.81;;;8.70;79.61
53647;BME280;39550;52.230;5.194;2022-11-15T14:31:07;100140.75;;;8.88;79.52
53647;BME280;39550;52.230;5.194;2022-11-15T14:33:36;100159.59;;;8.93;79.77
53647;BME280;39550;52.230;5.194;2022-11-15T14:36:11;100139.03;;;8.86;79.69
53647;BME280;39550;52.230;5.194;2022-11-15T14:38:37;100113.28;;;8.76;79.78
53647;BME280;39550;52.230;5.194;2022-11-15T14:41:02;100127.88;;;8.84;80.08
53647;BME280;39550;52.230;5.194;2022-11-15T14:43:27;100133.88;;;8.93;79.50
53647;BME280;39550;52.230;5.194;2022-11-15T14:45:53;100096.16;;;8.76;79.69